sensor_id;sensor_type;location;lat;lon;timestamp;pressure;altitude;pressure_sealevel;temperature;humidity
8047;BME280;67150;42.516;23.358;2023-05-22T00:01:50;88295.53;;;13.52;70.50
8047;BME280;67150;42.516;23.358;2023-05-22T00:04:20;88293.00;;;13.52;70.43
8047;BME280;67150;42.516;23.358;2023-05-22T00:06:48;88294.72;;;13.52;70.43
8047;BME280;67150;42.516;23.358;2023-05-22T00:09:15;88298.06;;;13.52;70.62
8047;BME280;67150;42.516;23.358;2023-05-22T00:11:43;88283.13;;;13.49;70.30
8047;BME280;67150;42.516;23.358;2023-05-22T00:14:10;88293.09;;;13.51;70.44
8047;BME280;67150;42.516;23.358;2023-05-22T00:16:38;88288.03;;;13.51;70.29
8047;BME280;67150;42.516;23.358;2023-05-22T00:19:07;88289.66;;;13.52;70.37
8047;BME280;67150;42.516;23.358;2023-05-22T00:21:37;88289.81;;;13.50;70.25
8047;BME280;67150;42.516;23.358;2023-05-22T00:24:05;88287.13;;;13.52;70.50
8047;BME280;67150;42.516;23.358;2023-05-22T00:26:33;88288.84;;;13.51;70.37
8047;BME280;67150;42.516;23.358;2023-05-22T00:29:00;88288.03;;;13.51;70.34
8047;BME280;67150;42.516;23.358;2023-05-22T00:31:28;88293.09;;;13.51;70.37
8047;BME280;67150;42.516;23.358;2023-05-22T00:33:55;88289.91;;;13.48;70.39
8047;BME280;67150;42.516;23.358;2023-05-22T00:36:24;88283.94;;;13.50;70.43
8047;BME280;67150;42.516;23.358;2023-05-22T00:38:51;88287.28;;;13.50;70.41
8047;BME280;67150;42.516;23.358;2023-05-22T00:41:18;88288.19;;;13.49;70.53
8047;BME280;67150;42.516;23.358;2023-05-22T00:43:46;88286.47;;;13.50;70.37
8047;BME280;67150;42.516;23.358;2023-05-22T00:46:15;88283.13;;;13.49;70.43
8047;BME280;67150;42.516;23.358;2023-05-22T00:48:46;88286.47;;;13.50;70.46
8047;BME280;67150;42.516;23.358;2023-05-22T00:51:14;88283.94;;;13.50;70.29
8047;BME280;67150;42.516;23.358;2023-05-22T00:53:43;88273.81;;;13.50;70.40
8047;BME280;67150;42.516;23.358;2023-05-22T00:56:11;88257.16;;;13.37;70.25
8047;BME280;67150;42.516;23.358;2023-05-22T00:58:40;88278.06;;;13.49;70.71
8047;BME280;67150;42.516;23.358;2023-05-22T01:01:07;88270.47;;;13.49;70.45
8047;BME280;67150;42.516;23.358;2023-05-22T01:03:36;88270.47;;;13.49;70.47
8047;BME280;67150;42.516;23.358;2023-05-22T01:06:07;88267.03;;;13.50;70.45
8047;BME280;67150;42.516;23.358;2023-05-22T01:08:34;88266.22;;;13.50;70.40
8047;BME280;67150;42.516;23.358;2023-05-22T01:11:06;88263.81;;;13.48;70.43
8047;BME280;67150;42.516;23.358;2023-05-22T01:13:41;88263.00;;;13.47;70.41
8047;BME280;67150;42.516;23.358;2023-05-22T01:16:19;88264.59;;;13.48;70.39
8047;BME280;67150;42.516;23.358;2023-05-22T01:18:59;88262.06;;;13.48;70.44
8047;BME280;67150;42.516;23.358;2023-05-22T01:21:34;88257.94;;;13.47;70.41
8047;BME280;67150;42.516;23.358;2023-05-22T01:24:32;88261.28;;;13.48;70.57
8047;BME280;67150;42.516;23.358;2023-05-22T01:27:22;88263.00;;;13.47;70.32
8047;BME280;67150;42.516;23.358;2023-05-22T01:30:16;88259.69;;;13.47;70.42
8047;BME280;67150;42.516;23.358;2023-05-22T01:32:46;88266.47;;;13.46;70.46
8047;BME280;67150;42.516;23.358;2023-05-22T01:35:16;88258.88;;;13.46;70.38
8047;BME280;67150;42.516;23.358;2023-05-22T01:37:45;88259.81;;;13.45;70.45
8047;BME280;67150;42.516;23.358;2023-05-22T01:40:12;88259.81;;;13.45;70.37
8047;BME280;67150;42.516;23.358;2023-05-22T01:42:40;88256.34;;;13.46;70.34
8047;BME280;67150;42.516;23.358;2023-05-22T01:45:09;88252.22;;;13.45;70.41
8047;BME280;67150;42.516;23.358;2023-05-22T01:47:37;88249.69;;;13.45;70.41
8047;BME280;67150;42.516;23.358;2023-05-22T01:50:06;88253.81;;;13.46;70.40
8047;BME280;67150;42.516;23.358;2023-05-22T01:52:40;88248.75;;;13.46;70.35
8047;BME280;67150;42.516;23.358;2023-05-22T01:55:12;88249.69;;;13.45;70.35
8047;BME280;67150;42.516;23.358;2023-05-22T01:57:46;88248.75;;;13.46;70.28
8047;BME280;67150;42.516;23.358;2023-05-22T02:00:20;88255.66;;;13.44;70.27
8047;BME280;67150;42.516;23.358;2023-05-22T02:02:52;88254.09;;;13.43;70.38
8047;BME280;67150;42.516;23.358;2023-05-22T02:05:25;88243.97;;;13.43;70.32
8047;BME280;67150;42.516;23.358;2023-05-22T02:07:54;88246.50;;;13.43;70.33
8047;BME280;67150;42.516;23.358;2023-05-22T02:10:24;88246.50;;;13.43;70.31
8047;BME280;67150;42.516;23.358;2023-05-22T02:12:53;88232.13;;;13.44;70.30
8047;BME280;67150;42.516;23.358;2023-05-22T02:15:21;88243.16;;;13.43;70.14
8047;BME280;67150;42.516;23.358;2023-05-22T02:17:48;88244.09;;;13.42;70.29
8047;BME280;67150;42.516;23.358;2023-05-22T02:20:18;88253.94;;;13.45;70.06
8047;BME280;67150;42.516;23.358;2023-05-22T02:22:47;88249.94;;;13.42;70.27
8047;BME280;67150;42.516;23.358;2023-05-22T02:25:15;88244.88;;;13.42;70.17
8047;BME280;67150;42.516;23.358;2023-05-22T02:27:43;88244.88;;;13.42;70.15
8047;BME280;67150;42.516;23.358;2023-05-22T02:30:12;88253.41;;;13.41;70.33
8047;BME280;67150;42.516;23.358;2023-05-22T02:32:40;88248.34;;;13.41;70.16
8047;BME280;67150;42.516;23.358;2023-05-22T02:35:08;88254.22;;;13.42;70.14
8047;BME280;67150;42.516;23.358;2023-05-22T02:37:36;88247.69;;;13.39;70.28
8047;BME280;67150;42.516;23.358;2023-05-22T02:40:06;88247.41;;;13.42;70.13
8047;BME280;67150;42.516;23.358;2023-05-22T02:42:35;88250.09;;;13.41;70.00
8047;BME280;67150;42.516;23.358;2023-05-22T02:45:02;88245.56;;;13.35;70.07
8047;BME280;67150;42.516;23.358;2023-05-22T02:47:30;88245.16;;;13.39;70.22
8047;BME280;67150;42.516;23.358;2023-05-22T02:50:01;88242.63;;;13.39;70.02
8047;BME280;67150;42.516;23.358;2023-05-22T02:52:28;88248.63;;;13.38;70.05
8047;BME280;67150;42.516;23.358;2023-05-22T02:54:56;88246.22;;;13.37;70.10
8047;BME280;67150;42.516;23.358;2023-05-22T02:57:25;88247.69;;;13.39;69.90
8047;BME280;67150;42.516;23.358;2023-05-22T02:59:52;88247.03;;;13.37;69.91
8047;BME280;67150;42.516;23.358;2023-05-22T03:02:19;88239.44;;;13.37;69.97
8047;BME280;67150;42.516;23.358;2023-05-22T03:04:46;88229.69;;;13.33;69.97
8047;BME280;67150;42.516;23.358;2023-05-22T03:07:14;88245.31;;;13.38;70.03
8047;BME280;67150;42.516;23.358;2023-05-22T03:09:41;88244.63;;;13.36;69.92
8047;BME280;67150;42.516;23.358;2023-05-22T03:12:09;88242.88;;;13.36;70.03
8047;BME280;67150;42.516;23.358;2023-05-22T03:14:37;88247.94;;;13.36;69.91
8047;BME280;67150;42.516;23.358;2023-05-22T03:17:05;88239.44;;;13.37;69.95
8047;BME280;67150;42.516;23.358;2023-05-22T03:19:32;88240.34;;;13.36;69.85
8047;BME280;67150;42.516;23.358;2023-05-22T03:22:00;88240.34;;;13.36;69.77
8047;BME280;67150;42.516;23.358;2023-05-22T03:24:27;88238.78;;;13.35;69.86
8047;BME280;67150;42.516;23.358;2023-05-22T03:26:54;88244.63;;;13.36;69.93
8047;BME280;67150;42.516;23.358;2023-05-22T03:29:21;88244.75;;;13.34;69.89
8047;BME280;67150;42.516;23.358;2023-05-22T03:31:50;88244.75;;;13.34;69.85
8047;BME280;67150;42.516;23.358;2023-05-22T03:34:17;88247.28;;;13.34;69.85
8047;BME280;67150;42.516;23.358;2023-05-22T03:36:52;88249.81;;;13.34;69.78
8047;BME280;67150;42.516;23.358;2023-05-22T03:39:19;88256.59;;;13.34;69.62
8047;BME280;67150;42.516;23.358;2023-05-22T03:41:46;88254.88;;;13.34;69.75
8047;BME280;67150;42.516;23.358;2023-05-22T03:44:13;88257.41;;;13.34;69.94
8047;BME280;67150;42.516;23.358;2023-05-22T03:46:41;88259.13;;;13.34;69.74
8047;BME280;67150;42.516;23.358;2023-05-22T03:49:10;88261.66;;;13.34;69.99
8047;BME280;67150;42.516;23.358;2023-05-22T03:51:37;88260.88;;;13.33;69.99
8047;BME280;67150;42.516;23.358;2023-05-22T03:54:04;88261.66;;;13.34;69.80
8047;BME280;67150;42.516;23.358;2023-05-22T03:56:32;88257.53;;;13.33;69.92
8047;BME280;67150;42.516;23.358;2023-05-22T03:58:59;88256.75;;;13.32;69.94
8047;BME280;67150;42.516;23.358;2023-05-22T04:01:26;88257.69;;;13.31;69.92
8047;BME280;67150;42.516;23.358;2023-05-22T04:03:54;88256.75;;;13.32;69.92
8047;BME280;67150;42.516;23.358;2023-05-22T04:06:23;88253.41;;;13.32;69.97
8047;BME280;67150;42.516;23.358;2023-05-22T04:08:51;88244.63;;;13.26;70.02
8047;BME280;67150;42.516;23.358;2023-05-22T04:11:18;88253.41;;;13.32;69.88
8047;BME280;67150;42.516;23.358;2023-05-22T04:13:48;88258.47;;;13.32;70.02
8047;BME280;67150;42.516;23.358;2023-05-22T04:16:15;88252.63;;;13.31;70.10
8047;BME280;67150;42.516;23.358;2023-05-22T04:18:43;88247.56;;;13.31;69.95
8047;BME280;67150;42.516;23.358;2023-05-22T04:21:10;88255.25;;;13.30;69.96
8047;BME280;67150;42.516;23.358;2023-05-22T04:23:39;88250.09;;;13.31;70.02
8047;BME280;67150;42.516;23.358;2023-05-22T04:26:09;88253.53;;;13.30;69.92
8047;BME280;67150;42.516;23.358;2023-05-22T04:28:36;88258.47;;;13.32;69.93
8047;BME280;67150;42.516;23.358;2023-05-22T04:31:03;88253.53;;;13.30;69.90
8047;BME280;67150;42.516;23.358;2023-05-22T04:33:32;88257.78;;;13.30;70.00
8047;BME280;67150;42.516;23.358;2023-05-22T04:36:01;88252.72;;;13.30;70.14
8047;BME280;67150;42.516;23.358;2023-05-22T04:38:30;88261.13;;;13.30;69.90
8047;BME280;67150;42.516;23.358;2023-05-22T04:41:03;88263.53;;;13.32;69.93
8047;BME280;67150;42.516;23.358;2023-05-22T04:43:33;88257.78;;;13.30;69.68
8047;BME280;67150;42.516;23.358;2023-05-22T04:46:01;88265.25;;;13.31;69.80
8047;BME280;67150;42.516;23.358;2023-05-22T04:48:28;88269.53;;;13.31;69.91
8047;BME280;67150;42.516;23.358;2023-05-22T04:50:56;88267.00;;;13.31;69.99
8047;BME280;67150;42.516;23.358;2023-05-22T04:53:23;88266.88;;;13.32;69.90
8047;BME280;67150;42.516;23.358;2023-05-22T04:55:52;88265.25;;;13.31;69.79
8047;BME280;67150;42.516;23.358;2023-05-22T04:58:21;88264.59;;;13.29;69.96
8047;BME280;67150;42.516;23.358;2023-05-22T05:00:49;88267.78;;;13.31;69.89
8047;BME280;67150;42.516;23.358;2023-05-22T05:03:17;88273.66;;;13.32;69.80
8047;BME280;67150;42.516;23.358;2023-05-22T05:05:44;88262.19;;;13.28;69.90
8047;BME280;67150;42.516;23.358;2023-05-22T05:08:12;88277.91;;;13.31;69.95
8047;BME280;67150;42.516;23.358;2023-05-22T05:10:39;88266.19;;;13.30;69.91
8047;BME280;67150;42.516;23.358;2023-05-22T05:13:06;88265.38;;;13.30;69.98
8047;BME280;67150;42.516;23.358;2023-05-22T05:15:35;88268.72;;;13.30;69.94
8047;BME280;67150;42.516;23.358;2023-05-22T05:18:03;88272.84;;;13.31;69.96
8047;BME280;67150;42.516;23.358;2023-05-22T05:20:30;88267.91;;;13.30;70.00
8047;BME280;67150;42.516;23.358;2023-05-22T05:22:57;88271.25;;;13.30;69.91
8047;BME280;67150;42.516;23.358;2023-05-22T05:25:25;88272.97;;;13.30;69.91
8047;BME280;67150;42.516;23.358;2023-05-22T05:27:52;88275.38;;;13.31;69.89
8047;BME280;67150;42.516;23.358;2023-05-22T05:30:19;88276.31;;;13.30;69.98
8047;BME280;67150;42.516;23.358;2023-05-22T05:32:48;88276.31;;;13.30;69.91
8047;BME280;67150;42.516;23.358;2023-05-22T05:35:15;88277.25;;;13.29;69.84
8047;BME280;67150;42.516;23.358;2023-05-22T05:37:43;88276.31;;;13.30;69.89
8047;BME280;67150;42.516;23.358;2023-05-22T05:40:11;88281.38;;;13.30;69.89
8047;BME280;67150;42.516;23.358;2023-05-22T05:42:40;88282.16;;;13.31;69.96
8047;BME280;67150;42.516;23.358;2023-05-22T05:45:08;88278.72;;;13.32;69.94
8047;BME280;67150;42.516;23.358;2023-05-22T05:47:36;88287.13;;;13.32;69.87
8047;BME280;67150;42.516;23.358;2023-05-22T05:50:05;88292.19;;;13.32;69.79
8047;BME280;67150;42.516;23.358;2023-05-22T05:52:33;88290.41;;;13.33;69.79
8047;BME280;67150;42.516;23.358;2023-05-22T05:55:00;88290.31;;;13.34;69.75
8047;BME280;67150;42.516;23.358;2023-05-22T05:57:28;88302.97;;;13.34;70.00
8047;BME280;67150;42.516;23.358;2023-05-22T06:03:03;88296.97;;;13.35;69.83
8047;BME280;67150;42.516;23.358;2023-05-22T06:05:32;88305.50;;;13.34;69.89
8047;BME280;67150;42.516;23.358;2023-05-22T06:07:59;88297.75;;;13.36;69.80
8047;BME280;67150;42.516;23.358;2023-05-22T06:10:27;88297.63;;;13.37;69.78
8047;BME280;67150;42.516;23.358;2023-05-22T06:12:57;88294.97;;;13.39;69.76
8047;BME280;67150;42.516;23.358;2023-05-22T06:15:24;88299.25;;;13.38;69.86
8047;BME280;67150;42.516;23.358;2023-05-22T06:17:51;88300.03;;;13.39;69.87
8047;BME280;67150;42.516;23.358;2023-05-22T06:20:19;88299.91;;;13.40;69.77
8047;BME280;67150;42.516;23.358;2023-05-22T06:22:48;88306.44;;;13.43;69.65
8047;BME280;67150;42.516;23.358;2023-05-22T06:25:15;88301.38;;;13.43;69.76
8047;BME280;67150;42.516;23.358;2023-05-22T06:27:43;88298.03;;;13.42;69.81
8047;BME280;67150;42.516;23.358;2023-05-22T06:30:11;88300.56;;;13.42;69.79
8047;BME280;67150;42.516;23.358;2023-05-22T06:32:38;88292.84;;;13.44;69.79
8047;BME280;67150;42.516;23.358;2023-05-22T06:35:06;88300.56;;;13.42;69.82
8047;BME280;67150;42.516;23.358;2023-05-22T06:37:34;88303.25;;;13.41;69.74
8047;BME280;67150;42.516;23.358;2023-05-22T06:40:06;88294.97;;;13.39;69.78
8047;BME280;67150;42.516;23.358;2023-05-22T06:42:34;88306.97;;;13.46;69.62
8047;BME280;67150;42.516;23.358;2023-05-22T06:45:02;88303.75;;;13.44;69.74
8047;BME280;67150;42.516;23.358;2023-05-22T06:47:30;88307.63;;;13.48;69.85
8047;BME280;67150;42.516;23.358;2023-05-22T06:49:57;88300.19;;;13.47;69.72
8047;BME280;67150;42.516;23.358;2023-05-22T06:52:24;88309.50;;;13.46;69.80
8047;BME280;67150;42.516;23.358;2023-05-22T06:54:52;88308.56;;;13.47;69.99
8047;BME280;67150;42.516;23.358;2023-05-22T06:57:21;88307.78;;;13.47;70.28
8047;BME280;67150;42.516;23.358;2023-05-22T06:59:48;88313.50;;;13.49;70.25
8047;BME280;67150;42.516;23.358;2023-05-22T07:02:16;88315.22;;;13.48;70.18
8047;BME280;67150;42.516;23.358;2023-05-22T07:04:43;88308.44;;;13.49;70.13
8047;BME280;67150;42.516;23.358;2023-05-22T07:07:10;88298.97;;;13.51;70.21
8047;BME280;67150;42.516;23.358;2023-05-22T07:09:38;88301.66;;;13.50;71.05
8047;BME280;67150;42.516;23.358;2023-05-22T07:12:06;88304.84;;;13.52;70.81
8047;BME280;67150;42.516;23.358;2023-05-22T07:14:35;88300.69;;;13.51;70.62
8047;BME280;67150;42.516;23.358;2023-05-22T07:17:02;88306.56;;;13.51;71.04
8047;BME280;67150;42.516;23.358;2023-05-22T07:19:30;88304.56;;;13.55;70.61
8047;BME280;67150;42.516;23.358;2023-05-22T07:21:57;88307.25;;;13.53;70.51
8047;BME280;67150;42.516;23.358;2023-05-22T07:24:24;88301.38;;;13.53;70.64
8047;BME280;67150;42.516;23.358;2023-05-22T07:26:52;88308.84;;;13.54;70.51
8047;BME280;67150;42.516;23.358;2023-05-22T07:29:19;88311.25;;;13.56;70.11
8047;BME280;67150;42.516;23.358;2023-05-22T07:31:48;88318.03;;;13.55;70.05
8047;BME280;67150;42.516;23.358;2023-05-22T07:34:15;88314.69;;;13.55;70.09
8047;BME280;67150;42.516;23.358;2023-05-22T07:36:42;88311.25;;;13.56;69.84
8047;BME280;67150;42.516;23.358;2023-05-22T07:39:10;88302.69;;;13.57;70.19
8047;BME280;67150;42.516;23.358;2023-05-22T07:41:38;88302.97;;;13.54;70.30
8047;BME280;67150;42.516;23.358;2023-05-22T07:44:06;88304.56;;;13.55;70.13
8047;BME280;67150;42.516;23.358;2023-05-22T07:46:33;88304.56;;;13.55;70.18
8047;BME280;67150;42.516;23.358;2023-05-22T07:49:04;88302.97;;;13.54;70.00
8047;BME280;67150;42.516;23.358;2023-05-22T07:51:31;88301.38;;;13.53;70.04
8047;BME280;67150;42.516;23.358;2023-05-22T07:53:58;88304.72;;;13.53;69.97
8047;BME280;67150;42.516;23.358;2023-05-22T07:56:26;88308.03;;;13.54;69.91
8047;BME280;67150;42.516;23.358;2023-05-22T07:58:54;88308.19;;;13.52;69.98
8047;BME280;67150;42.516;23.358;2023-05-22T08:01:24;88307.25;;;13.53;69.95
8047;BME280;67150;42.516;23.358;2023-05-22T08:03:51;88304.56;;;13.55;69.87
8047;BME280;67150;42.516;23.358;2023-05-22T08:06:20;88308.03;;;13.54;70.14
8047;BME280;67150;42.516;23.358;2023-05-22T08:08:49;88317.38;;;13.53;70.04
8047;BME280;67150;42.516;23.358;2023-05-22T08:11:17;88317.38;;;13.53;70.04
8047;BME280;67150;42.516;23.358;2023-05-22T08:13:45;88317.38;;;13.53;69.90
8047;BME280;67150;42.516;23.358;2023-05-22T08:16:12;88320.03;;;13.52;69.89
8047;BME280;67150;42.516;23.358;2023-05-22T08:18:39;88311.50;;;13.53;70.30
8047;BME280;67150;42.516;23.358;2023-05-22T08:21:07;88324.16;;;13.53;69.98
8047;BME280;67150;42.516;23.358;2023-05-22T08:23:35;88327.50;;;13.53;69.89
8047;BME280;67150;42.516;23.358;2023-05-22T08:26:03;88320.69;;;13.54;69.93
8047;BME280;67150;42.516;23.358;2023-05-22T08:28:30;88320.69;;;13.54;70.10
8047;BME280;67150;42.516;23.358;2023-05-22T08:30:58;88317.22;;;13.55;69.87
8047;BME280;67150;42.516;23.358;2023-05-22T08:33:25;88314.69;;;13.55;69.95
8047;BME280;67150;42.516;23.358;2023-05-22T08:35:52;88313.91;;;13.54;69.90
8047;BME280;67150;42.516;23.358;2023-05-22T08:38:20;88315.63;;;13.54;70.24
8047;BME280;67150;42.516;23.358;2023-05-22T08:40:52;88325.38;;;13.58;70.13
8047;BME280;67150;42.516;23.358;2023-05-22T08:43:20;88316.81;;;13.59;70.18
8047;BME280;67150;42.516;23.358;2023-05-22T08:45:51;88325.38;;;13.58;70.24
8047;BME280;67150;42.516;23.358;2023-05-22T08:48:23;88324.72;;;13.56;70.26
8047;BME280;67150;42.516;23.358;2023-05-22T08:50:53;88330.44;;;13.58;70.33
8047;BME280;67150;42.516;23.358;2023-05-22T08:53:24;88335.59;;;13.57;70.33
8047;BME280;67150;42.516;23.358;2023-05-22T08:55:55;88325.22;;;13.60;70.13
8047;BME280;67150;42.516;23.358;2023-05-22T08:58:23;88336.28;;;13.59;70.45
8047;BME280;67150;42.516;23.358;2023-05-22T09:00:52;88322.56;;;13.61;70.21
8047;BME280;67150;42.516;23.358;2023-05-22T09:03:20;88334.44;;;13.61;70.21
8047;BME280;67150;42.516;23.358;2023-05-22T09:05:47;88334.44;;;13.61;70.52
8047;BME280;67150;42.516;23.358;2023-05-22T09:08:17;88328.56;;;13.60;70.43
8047;BME280;67150;42.516;23.358;2023-05-22T09:10:44;88330.28;;;13.60;70.25
8047;BME280;67150;42.516;23.358;2023-05-22T09:13:23;88316.31;;;13.56;70.38
8047;BME280;67150;42.516;23.358;2023-05-22T09:15:51;88330.28;;;13.60;70.20
8047;BME280;67150;42.516;23.358;2023-05-22T09:18:18;88333.63;;;13.60;70.25
8047;BME280;67150;42.516;23.358;2023-05-22T09:20:46;88330.97;;;13.62;69.98
8047;BME280;67150;42.516;23.358;2023-05-22T09:23:14;88316.16;;;13.47;70.12
8047;BME280;67150;42.516;23.358;2023-05-22T09:25:43;88338.56;;;13.62;70.09
8047;BME280;67150;42.516;23.358;2023-05-22T09:28:13;88328.56;;;13.60;70.29
8047;BME280;67150;42.516;23.358;2023-05-22T09:30:40;88326.69;;;13.62;70.31
8047;BME280;67150;42.516;23.358;2023-05-22T09:33:08;88327.50;;;13.63;70.24
8047;BME280;67150;42.516;23.358;2023-05-22T09:35:38;88328.28;;;13.63;70.38
8047;BME280;67150;42.516;23.358;2023-05-22T09:38:07;88326.56;;;13.64;70.29
8047;BME280;67150;42.516;23.358;2023-05-22T09:40:36;88330.72;;;13.65;70.13
8047;BME280;67150;42.516;23.358;2023-05-22T09:43:06;88329.09;;;13.64;70.15
8047;BME280;67150;42.516;23.358;2023-05-22T09:45:35;88341.88;;;13.62;70.12
8047;BME280;67150;42.516;23.358;2023-05-22T09:48:03;88335.88;;;13.63;70.24
8047;BME280;67150;42.516;23.358;2023-05-22T09:50:31;88335.09;;;13.63;70.20
8047;BME280;67150;42.516;23.358;2023-05-22T09:53:02;88332.44;;;13.64;70.17
8047;BME280;67150;42.516;23.358;2023-05-22T09:55:30;88345.09;;;13.64;70.26
8047;BME280;67150;42.516;23.358;2023-05-22T09:58:02;88335.78;;;13.65;70.13
8047;BME280;67150;42.516;23.358;2023-05-22T10:00:32;88330.72;;;13.65;70.21
8047;BME280;67150;42.516;23.358;2023-05-22T10:03:07;88328.19;;;13.65;70.17
8047;BME280;67150;42.516;23.358;2023-05-22T10:05:37;88329.22;;;13.62;70.26
8047;BME280;67150;42.516;23.358;2023-05-22T10:08:10;88334.81;;;13.66;70.53
8047;BME280;67150;42.516;23.358;2023-05-22T10:10:41;88326.97;;;13.69;70.29
8047;BME280;67150;42.516;23.358;2023-05-22T10:13:09;88326.03;;;13.70;70.41
8047;BME280;67150;42.516;23.358;2023-05-22T10:15:37;88328.56;;;13.70;70.74
8047;BME280;67150;42.516;23.358;2023-05-22T10:18:08;88327.66;;;13.71;70.78
8047;BME280;67150;42.516;23.358;2023-05-22T10:20:36;88324.06;;;13.73;70.73
8047;BME280;67150;42.516;23.358;2023-05-22T10:23:05;88322.44;;;13.72;70.54
8047;BME280;67150;42.516;23.358;2023-05-22T10:25:33;88319.09;;;13.72;70.25
8047;BME280;67150;42.516;23.358;2023-05-22T10:28:01;88321.63;;;13.72;70.49
8047;BME280;67150;42.516;23.358;2023-05-22T10:30:33;88319.09;;;13.72;70.39
8047;BME280;67150;42.516;23.358;2023-05-22T10:33:08;88317.38;;;13.72;70.32
8047;BME280;67150;42.516;23.358;2023-05-22T10:35:43;88317.38;;;13.72;70.42
8047;BME280;67150;42.516;23.358;2023-05-22T10:38:23;88313.91;;;13.73;70.47
8047;BME280;67150;42.516;23.358;2023-05-22T10:40:52;88313.13;;;13.73;70.30
8047;BME280;67150;42.516;23.358;2023-05-22T10:43:21;88316.56;;;13.72;70.60
8047;BME280;67150;42.516;23.358;2023-05-22T10:45:49;88313.13;;;13.73;70.40
8047;BME280;67150;42.516;23.358;2023-05-22T10:48:36;88312.84;;;13.76;70.81
8047;BME280;67150;42.516;23.358;2023-05-22T10:51:05;88309.38;;;13.77;70.70
8047;BME280;67150;42.516;23.358;2023-05-22T10:53:33;88302.34;;;13.71;70.62
8047;BME280;67150;42.516;23.358;2023-05-22T10:56:09;88306.06;;;13.76;70.63
8047;BME280;67150;42.516;23.358;2023-05-22T10:58:37;88302.84;;;13.74;70.54
8047;BME280;67150;42.516;23.358;2023-05-22T11:01:09;88299.81;;;13.71;70.63
8047;BME280;67150;42.516;23.358;2023-05-22T11:03:53;88308.19;;;13.81;70.82
8047;BME280;67150;42.516;23.358;2023-05-22T11:06:37;88313.13;;;13.82;70.44
8047;BME280;67150;42.516;23.358;2023-05-22T11:09:19;88308.19;;;13.81;71.06
8047;BME280;67150;42.516;23.358;2023-05-22T11:12:14;88306.47;;;13.81;71.12
8047;BME280;67150;42.516;23.358;2023-05-22T11:14:42;88301.50;;;13.80;70.63
8047;BME280;67150;42.516;23.358;2023-05-22T11:17:16;88298.97;;;13.80;70.70
8047;BME280;67150;42.516;23.358;2023-05-22T11:19:56;88292.34;;;13.79;70.41
8047;BME280;67150;42.516;23.358;2023-05-22T11:22:30;88303.38;;;13.78;70.26
8047;BME280;67150;42.516;23.358;2023-05-22T11:24:58;88305.81;;;13.79;70.33
8047;BME280;67150;42.516;23.358;2023-05-22T11:27:25;88321.00;;;13.79;70.25
8047;BME280;67150;42.516;23.358;2023-05-22T11:29:53;88337.09;;;13.78;70.26
8047;BME280;67150;42.516;23.358;2023-05-22T11:32:22;88320.72;;;13.73;70.28
8047;BME280;67150;42.516;23.358;2023-05-22T11:34:51;88338.19;;;13.76;70.19
8047;BME280;67150;42.516;23.358;2023-05-22T11:37:19;88344.03;;;13.76;70.04
8047;BME280;67150;42.516;23.358;2023-05-22T11:39:49;88350.03;;;13.75;70.16
8047;BME280;67150;42.516;23.358;2023-05-22T11:42:17;88347.50;;;13.75;70.10
8047;BME280;67150;42.516;23.358;2023-05-22T11:44:45;88356.16;;;13.73;70.25
8047;BME280;67150;42.516;23.358;2023-05-22T11:47:12;88354.28;;;13.75;70.12
8047;BME280;67150;42.516;23.358;2023-05-22T11:49:40;88361.09;;;13.74;70.17
8047;BME280;67150;42.516;23.358;2023-05-22T11:52:09;88362.81;;;13.74;70.07
8047;BME280;67150;42.516;23.358;2023-05-22T11:54:37;88359.25;;;13.76;70.22
8047;BME280;67150;42.516;23.358;2023-05-22T11:57:05;88360.00;;;13.77;70.15
8047;BME280;67150;42.516;23.358;2023-05-22T11:59:32;88363.50;;;13.76;70.00
8047;BME280;67150;42.516;23.358;2023-05-22T12:02:00;88362.69;;;13.75;70.04
8047;BME280;67150;42.516;23.358;2023-05-22T12:04:27;88366.16;;;13.74;70.06
8047;BME280;67150;42.516;23.358;2023-05-22T12:06:55;88376.16;;;13.76;70.09
8047;BME280;67150;42.516;23.358;2023-05-22T12:09:25;88366.94;;;13.75;70.12
8047;BME280;67150;42.516;23.358;2023-05-22T12:11:54;88366.94;;;13.75;69.96
8047;BME280;67150;42.516;23.358;2023-05-22T12:14:24;88368.56;;;13.76;69.89
8047;BME280;67150;42.516;23.358;2023-05-22T12:16:52;88364.41;;;13.75;69.96
8047;BME280;67150;42.516;23.358;2023-05-22T12:19:20;88364.41;;;13.75;69.98
8047;BME280;67150;42.516;23.358;2023-05-22T12:21:48;88360.16;;;13.75;69.81
8047;BME280;67150;42.516;23.358;2023-05-22T12:24:16;88361.09;;;13.74;69.94
8047;BME280;67150;42.516;23.358;2023-05-22T12:26:52;88349.09;;;13.76;69.80
8047;BME280;67150;42.516;23.358;2023-05-22T12:29:21;88351.75;;;13.75;69.72
8047;BME280;67150;42.516;23.358;2023-05-22T12:31:48;88352.56;;;13.75;69.77
8047;BME280;67150;42.516;23.358;2023-05-22T12:34:16;88351.75;;;13.75;69.72
8047;BME280;67150;42.516;23.358;2023-05-22T12:36:45;88353.38;;;13.76;69.76
8047;BME280;67150;42.516;23.358;2023-05-22T12:39:16;88346.56;;;13.76;69.52
8047;BME280;67150;42.516;23.358;2023-05-22T12:41:44;88336.31;;;13.78;69.44
8047;BME280;67150;42.516;23.358;2023-05-22T12:44:14;88343.25;;;13.76;69.71
8047;BME280;67150;42.516;23.358;2023-05-22T12:46:42;88346.69;;;13.75;69.62
8047;BME280;67150;42.516;23.358;2023-05-22T12:49:09;88323.50;;;13.70;69.75
8047;BME280;67150;42.516;23.358;2023-05-22T12:51:59;88334.69;;;13.77;69.68
8047;BME280;67150;42.516;23.358;2023-05-22T12:54:27;88331.38;;;13.76;69.74
8047;BME280;67150;42.516;23.358;2023-05-22T12:56:54;88324.56;;;13.77;69.74
8047;BME280;67150;42.516;23.358;2023-05-22T12:59:23;88315.25;;;13.77;69.76
8047;BME280;67150;42.516;23.358;2023-05-22T13:01:51;88317.66;;;13.79;69.60
8047;BME280;67150;42.516;23.358;2023-05-22T13:04:18;88324.28;;;13.80;69.74
8047;BME280;67150;42.516;23.358;2023-05-22T13:06:46;88318.31;;;13.81;69.89
8047;BME280;67150;42.516;23.358;2023-05-22T13:09:13;88304.84;;;13.80;69.89
8047;BME280;67150;42.516;23.358;2023-05-22T13:11:42;88308.06;;;13.82;69.79
8047;BME280;67150;42.516;23.358;2023-05-22T13:14:10;88310.59;;;13.82;69.63